createdAt,value
2022-09-10T00:02:13.493Z,3.05
2022-09-10T00:04:40.206Z,2.97
2022-09-10T00:07:09.796Z,3.45
2022-09-10T00:09:41.297Z,3.17
2022-09-10T00:12:15.031Z,3.45
2022-09-10T00:14:44.337Z,3.40
2022-09-10T00:17:10.999Z,3.70
2022-09-10T00:19:38.114Z,3.20
2022-09-10T00:22:04.838Z,3.45
2022-09-10T00:24:33.781Z,3.65
2022-09-10T00:27:00.423Z,3.65
2022-09-10T00:29:29.456Z,3.40
2022-09-10T00:31:59.141Z,3.70
2022-09-10T00:37:18.395Z,4.20
2022-09-10T00:39:47.361Z,4.10
2022-09-10T00:42:14.437Z,3.97
2022-09-10T00:44:41.478Z,3.72
2022-09-10T00:47:13.608Z,4.70
2022-09-10T00:49:49.722Z,4.00
2022-09-10T00:52:16.861Z,4.35
2022-09-10T00:54:47.267Z,5.30
2022-09-10T00:57:22.461Z,4.85
2022-09-10T00:59:55.918Z,4.97
2022-09-10T01:02:22.782Z,5.35
2022-09-10T01:04:52.524Z,4.75
2022-09-10T01:07:21.433Z,4.65
2022-09-10T01:09:48.276Z,4.20
2022-09-10T01:12:26.815Z,5.20
2022-09-10T01:15:13.168Z,4.90
2022-09-10T01:17:53.828Z,4.72
2022-09-10T01:20:31.371Z,5.40
2022-09-10T01:23:29.110Z,4.50
2022-09-10T01:26:31.444Z,4.90
2022-09-10T01:29:18.571Z,4.22
2022-09-10T01:32:04.299Z,4.70
2022-09-10T01:34:42.512Z,4.78
2022-09-10T01:37:16.184Z,4.45
2022-09-10T01:39:46.283Z,5.85
2022-09-10T01:42:13.107Z,5.15
2022-09-10T01:44:51.200Z,4.43
2022-09-10T01:47:32.568Z,3.70
2022-09-10T01:50:11.464Z,4.22
2022-09-10T01:53:02.747Z,4.63
2022-09-10T01:55:31.861Z,3.80
2022-09-10T01:58:33.628Z,2.72
2022-09-10T02:01:28.944Z,2.75
2022-09-10T02:03:59.644Z,2.33
2022-09-10T02:06:31.725Z,2.50
2022-09-10T02:09:00.627Z,1.35
2022-09-10T02:11:30.219Z,1.40
2022-09-10T02:14:02.887Z,1.48
2022-09-10T02:16:55.612Z,1.50
2022-09-10T02:19:22.522Z,0.93
2022-09-10T02:21:53.622Z,1.10
2022-09-10T02:24:22.769Z,1.30
2022-09-10T02:26:54.708Z,1.15
2022-09-10T02:29:21.909Z,1.05
2022-09-10T02:31:48.732Z,1.20
2022-09-10T02:34:16.297Z,0.90
2022-09-10T02:36:49.483Z,0.88
2022-09-10T02:39:16.274Z,1.02
2022-09-10T02:41:48.154Z,1.30
2022-09-10T02:44:17.908Z,0.93
2022-09-10T02:46:49.479Z,1.20
2022-09-10T02:49:16.226Z,1.10
2022-09-10T02:51:44.767Z,0.70
2022-09-10T02:54:11.614Z,1.05
2022-09-10T02:56:40.582Z,0.68
2022-09-10T02:59:07.631Z,0.57
2022-09-10T03:01:35.225Z,0.82
2022-09-10T03:04:08.122Z,0.52
2022-09-10T03:06:38.221Z,0.40
2022-09-10T03:09:05.130Z,0.50
2022-09-10T03:11:36.659Z,0.40
2022-09-10T03:14:05.691Z,0.20
2022-09-10T03:16:36.786Z,0.40
2022-09-10T03:19:09.179Z,0.45
2022-09-10T03:21:36.554Z,0.30
2022-09-10T03:24:05.319Z,0.30
2022-09-10T03:28:59.433Z,0.30
2022-09-10T03:31:29.306Z,0.20
2022-09-10T03:36:31.221Z,0.30
2022-09-10T03:39:01.157Z,0.30
2022-09-10T03:41:31.953Z,0.30
2022-09-10T03:43:59.607Z,0.20
2022-09-10T03:46:32.633Z,0.30
2022-09-10T03:49:02.389Z,0.32
2022-09-10T03:51:31.019Z,0.30
2022-09-10T03:54:00.521Z,0.20
2022-09-10T03:56:30.198Z,0.20
2022-09-10T03:58:57.435Z,0.22
2022-09-10T04:01:26.847Z,0.20
2022-09-10T04:03:57.083Z,0.20
2022-09-10T04:06:26.233Z,0.20
2022-09-10T04:08:55.165Z,0.28
2022-09-10T04:11:27.254Z,0.10
2022-09-10T04:14:00.356Z,0.40
2022-09-10T04:16:27.959Z,0.20
2022-09-10T04:18:57.892Z,0.20
2022-09-10T04:21:27.866Z,0.20
2022-09-10T04:23:56.687Z,0.20
2022-09-10T04:26:25.220Z,0.30
2022-09-10T04:28:54.762Z,0.30
2022-09-10T04:31:25.905Z,0.20
2022-09-10T04:33:56.432Z,0.20
2022-09-10T04:36:25.819Z,0.22
2022-09-10T04:38:56.042Z,0.40
2022-09-10T04:41:27.527Z,0.35
2022-09-10T04:43:54.460Z,0.20
2022-09-10T04:46:26.459Z,0.30
2022-09-10T04:48:55.163Z,0.73
2022-09-10T04:51:26.557Z,0.20
2022-09-10T04:53:54.335Z,0.20
2022-09-10T04:56:28.065Z,0.20
2022-09-10T04:58:57.465Z,0.43
2022-09-10T05:01:24.899Z,0.20
2022-09-10T05:03:55.883Z,0.20
2022-09-10T05:06:28.623Z,0.25
2022-09-10T05:08:58.488Z,0.25
2022-09-10T05:11:26.351Z,0.20
2022-09-10T05:13:58.797Z,0.20
2022-09-10T05:16:30.962Z,0.20
2022-09-10T05:19:00.213Z,0.20
2022-09-10T05:21:31.213Z,0.30
2022-09-10T05:23:58.614Z,0.20
2022-09-10T05:26:28.450Z,0.20
2022-09-10T05:28:57.229Z,0.20
2022-09-10T05:31:24.866Z,0.25
2022-09-10T05:33:55.386Z,0.20
2022-09-10T05:36:22.532Z,0.20
2022-09-10T05:38:51.559Z,0.20
2022-09-10T05:41:18.443Z,0.20
2022-09-10T05:43:48.445Z,0.20
2022-09-10T05:46:19.859Z,0.22
2022-09-10T05:48:54.287Z,0.20
2022-09-10T05:51:22.363Z,0.30
2022-09-10T05:56:19.129Z,0.30
2022-09-10T05:58:48.248Z,0.20
2022-09-10T06:03:43.303Z,0.30
2022-09-10T06:06:10.675Z,0.20
2022-09-10T06:08:41.923Z,0.22
2022-09-10T06:11:18.913Z,0.10
2022-09-10T06:13:49.122Z,0.22
2022-09-10T06:16:17.412Z,0.22
2022-09-10T06:18:45.233Z,0.23
2022-09-10T06:21:17.362Z,0.30
2022-09-10T06:23:47.467Z,0.20
2022-09-10T06:26:19.975Z,0.30
2022-09-10T06:28:51.704Z,0.30
2022-09-10T06:33:49.960Z,0.40
2022-09-10T06:36:22.257Z,0.20
2022-09-10T06:38:53.547Z,0.20
2022-09-10T06:41:20.230Z,0.73
2022-09-10T06:43:54.552Z,0.63
2022-09-10T06:49:31.392Z,0.30
2022-09-10T06:51:58.212Z,0.32
2022-09-10T06:54:26.537Z,0.20
2022-09-10T06:56:59.524Z,0.20
2022-09-10T06:59:26.287Z,0.20
2022-09-10T07:01:53.063Z,0.32
2022-09-10T07:04:23.296Z,0.40
2022-09-10T07:06:52.167Z,0.30
2022-09-10T07:09:21.193Z,0.28
2022-09-10T07:11:59.476Z,0.10
2022-09-10T07:14:29.791Z,0.30
2022-09-10T07:16:57.609Z,0.10
2022-09-10T07:19:27.375Z,0.22
2022-09-10T07:21:58.998Z,0.32
2022-09-10T07:24:25.741Z,0.20
2022-09-10T07:27:11.812Z,0.20
2022-09-10T07:29:43.766Z,0.28
2022-09-10T07:32:14.702Z,0.40
2022-09-10T07:34:41.690Z,0.20
2022-09-10T07:37:10.884Z,0.30
2022-09-10T07:39:40.209Z,0.40
2022-09-10T07:42:11.706Z,0.50
2022-09-10T07:44:39.777Z,0.50
2022-09-10T07:47:08.822Z,0.35
2022-09-10T07:49:40.351Z,0.30
2022-09-10T07:52:10.833Z,0.40
2022-09-10T07:54:48.139Z,0.50
2022-09-10T07:57:17.582Z,0.50
2022-09-10T07:59:44.303Z,0.82
2022-09-10T08:02:15.787Z,0.30
2022-09-10T08:04:50.035Z,1.30
2022-09-10T08:07:19.409Z,1.17
2022-09-10T08:09:46.567Z,0.40
2022-09-10T08:12:17.714Z,0.43
2022-09-10T08:14:45.478Z,0.60
2022-09-10T08:17:18.684Z,0.40
2022-09-10T08:19:50.676Z,0.40
2022-09-10T08:22:18.580Z,0.40
2022-09-10T08:24:55.752Z,0.40
2022-09-10T08:27:25.630Z,0.50
2022-09-10T08:29:54.724Z,0.30
2022-09-10T08:32:22.273Z,0.35
2022-09-10T08:34:48.979Z,0.43
2022-09-10T08:37:19.453Z,0.50
2022-09-10T08:39:46.348Z,0.50
2022-09-10T08:42:21.604Z,0.40
2022-09-10T08:44:55.055Z,0.20
2022-09-10T08:47:29.855Z,0.50
2022-09-10T08:50:11.660Z,0.40
2022-09-10T08:52:49.060Z,0.20
2022-09-10T08:55:31.585Z,0.30
2022-09-10T08:58:23.245Z,0.35
2022-09-10T09:00:59.773Z,0.20
2022-09-10T09:03:45.870Z,0.38
2022-09-10T09:06:31.669Z,0.27
2022-09-10T09:09:00.566Z,0.30
2022-09-10T09:11:55.301Z,0.20
2022-09-10T09:15:05.805Z,0.20
2022-09-10T09:18:04.819Z,0.30
2022-09-10T09:20:46.641Z,0.28
2022-09-10T09:23:23.602Z,0.20
2022-09-10T09:26:04.540Z,0.30
2022-09-10T09:28:41.809Z,0.20
2022-09-10T09:31:13.590Z,0.20
2022-09-10T09:33:41.666Z,0.17
2022-09-10T09:36:13.625Z,0.13
2022-09-10T09:38:41.783Z,0.20
2022-09-10T09:41:26.954Z,0.20
2022-09-10T09:44:24.890Z,0.30
2022-09-10T09:46:51.685Z,0.23
2022-09-10T09:49:19.237Z,0.20
2022-09-10T09:51:48.385Z,0.40
2022-09-10T09:57:20.527Z,0.20
2022-09-10T09:59:50.665Z,0.20
2022-09-10T10:02:25.359Z,0.20
2022-09-10T10:05:26.925Z,0.10
2022-09-10T10:07:56.706Z,0.10
2022-09-10T10:10:28.838Z,0.20
2022-09-10T10:13:00.718Z,0.10
2022-09-10T10:15:41.972Z,0.20
2022-09-10T10:18:25.189Z,0.13
2022-09-10T10:21:24.109Z,0.43
2022-09-10T10:23:50.851Z,0.10
2022-09-10T10:26:20.891Z,0.10
2022-09-10T10:29:01.461Z,0.10
2022-09-10T10:31:40.821Z,0.00
2022-09-10T10:34:09.630Z,0.10
2022-09-10T10:36:48.048Z,0.10
2022-09-10T10:39:26.730Z,0.10
2022-09-10T10:42:23.239Z,0.10
2022-09-10T10:45:11.153Z,0.10
2022-09-10T10:48:04.798Z,0.07
2022-09-10T10:50:53.137Z,0.10
2022-09-10T10:53:51.748Z,0.20
2022-09-10T10:56:30.423Z,0.10
2022-09-10T10:59:09.395Z,0.10
2022-09-10T11:01:44.948Z,0.10
2022-09-10T11:04:28.652Z,0.00
2022-09-10T11:07:24.828Z,0.10
2022-09-10T11:09:55.000Z,0.20
2022-09-10T11:13:13.087Z,0.10
2022-09-10T11:16:02.025Z,0.10
2022-09-10T11:18:34.614Z,0.20
2022-09-10T11:21:24.864Z,0.10
2022-09-10T11:24:16.839Z,0.00
2022-09-10T11:27:13.203Z,0.20
2022-09-10T11:30:04.207Z,0.10
2022-09-10T11:32:42.793Z,0.10
2022-09-10T11:35:37.022Z,0.10
2022-09-10T11:38:06.171Z,0.10
2022-09-10T11:40:39.366Z,0.10
2022-09-10T11:43:19.808Z,0.13
2022-09-10T11:45:52.799Z,0.10
2022-09-10T11:48:23.528Z,0.10
2022-09-10T11:51:01.286Z,0.20
2022-09-10T11:53:28.216Z,0.10
2022-09-10T11:56:07.291Z,0.90
2022-09-10T11:58:48.991Z,0.10
2022-09-10T12:01:49.343Z,0.10
2022-09-10T12:04:31.433Z,0.10
2022-09-10T12:07:35.259Z,0.10
2022-09-10T12:10:12.165Z,0.35
2022-09-10T12:12:45.147Z,0.10
2022-09-10T12:15:20.670Z,0.20
2022-09-10T12:18:12.692Z,0.10
2022-09-10T12:20:57.041Z,0.10
2022-09-10T12:23:30.141Z,0.10
2022-09-10T12:26:23.025Z,0.10
2022-09-10T12:29:25.920Z,0.20
2022-09-10T12:32:10.240Z,0.10
2022-09-10T12:34:40.027Z,0.20
2022-09-10T12:37:19.912Z,0.15
2022-09-10T12:39:47.121Z,0.10
2022-09-10T12:42:31.977Z,0.20
2022-09-10T12:45:01.111Z,0.10
2022-09-10T12:47:33.173Z,0.30
2022-09-10T12:50:03.978Z,0.10
2022-09-10T12:52:31.666Z,0.10
2022-09-10T12:55:29.017Z,0.10
2022-09-10T12:58:15.939Z,0.10
2022-09-10T13:01:02.876Z,0.20
2022-09-10T13:03:30.520Z,1.88
2022-09-10T13:06:09.749Z,0.25
2022-09-10T13:08:41.632Z,0.45
2022-09-10T13:11:11.630Z,0.10
2022-09-10T13:13:47.733Z,0.32
2022-09-10T13:16:22.120Z,0.73
2022-09-10T13:18:49.143Z,0.10
2022-09-10T13:21:25.013Z,0.25
2022-09-10T13:23:53.296Z,0.20
2022-09-10T13:26:28.436Z,0.17
2022-09-10T13:29:01.234Z,0.10
2022-09-10T13:31:34.794Z,0.20
2022-09-10T13:34:14.206Z,0.10
2022-09-10T13:36:55.352Z,0.20
2022-09-10T13:39:38.300Z,0.20
2022-09-10T13:42:27.320Z,0.20
2022-09-10T13:45:02.422Z,0.20
2022-09-10T13:51:13.637Z,0.10
2022-09-10T13:53:57.822Z,0.20
2022-09-10T14:14:27.369Z,0.10
2022-09-10T14:16:59.702Z,0.10
2022-09-10T14:19:31.116Z,0.20
2022-09-10T14:22:00.447Z,0.32
2022-09-10T14:24:34.761Z,0.10
2022-09-10T14:27:05.279Z,0.10
2022-09-10T14:29:31.969Z,0.13
2022-09-10T14:32:37.380Z,0.13
2022-09-10T14:35:43.140Z,0.20
2022-09-10T14:38:31.742Z,0.52
2022-09-10T14:41:08.700Z,0.17
2022-09-10T14:43:40.468Z,0.25
2022-09-10T14:46:28.581Z,0.03
2022-09-10T14:51:29.785Z,0.10
2022-09-10T14:53:58.153Z,0.10
2022-09-10T14:56:35.921Z,0.20
2022-09-10T14:59:11.873Z,0.10
2022-09-10T15:01:41.001Z,0.10
2022-09-10T15:04:15.856Z,0.10
2022-09-10T15:06:48.483Z,0.10
2022-09-10T15:09:23.953Z,0.10
2022-09-10T15:12:05.881Z,0.22
2022-09-10T15:14:38.987Z,0.22
2022-09-10T15:17:13.702Z,0.10
2022-09-10T15:19:42.703Z,0.10
2022-09-10T15:22:24.783Z,0.10
2022-09-10T15:25:11.445Z,0.10
2022-09-10T15:27:43.741Z,0.10
2022-09-10T15:30:11.845Z,0.10
2022-09-10T15:32:40.997Z,0.10
2022-09-10T15:35:10.014Z,0.10
2022-09-10T15:37:36.683Z,0.10
2022-09-10T15:40:06.288Z,0.10
2022-09-10T15:42:35.206Z,0.22
2022-09-10T15:45:01.949Z,0.10
2022-09-10T15:47:33.562Z,0.10
2022-09-10T15:50:00.356Z,0.17
2022-09-10T15:52:27.165Z,0.10
2022-09-10T15:54:54.377Z,0.20
2022-09-10T15:57:21.210Z,0.10
2022-09-10T15:59:49.405Z,0.10
2022-09-10T16:02:18.678Z,0.20
2022-09-10T16:04:47.405Z,0.10
2022-09-10T16:09:42.767Z,0.00
2022-09-10T16:12:12.365Z,0.20
2022-09-10T16:14:44.526Z,0.10
2022-09-10T16:17:11.376Z,0.10
2022-09-10T16:19:41.123Z,0.10
2022-09-10T16:22:18.739Z,0.10
2022-09-10T16:24:49.691Z,0.20
2022-09-10T16:27:17.512Z,0.10
2022-09-10T16:29:49.440Z,0.20
2022-09-10T16:32:16.118Z,0.10
2022-09-10T16:34:43.020Z,0.10
2022-09-10T16:39:49.130Z,0.10
2022-09-10T16:42:15.771Z,0.10
2022-09-10T16:44:44.652Z,0.30
2022-09-10T16:47:14.291Z,0.15
2022-09-10T16:49:41.312Z,0.40
2022-09-10T16:52:08.048Z,0.10
2022-09-10T16:54:40.743Z,0.17
2022-09-10T16:57:07.801Z,0.20
2022-09-10T16:59:35.362Z,0.35
2022-09-10T17:02:04.152Z,0.25
2022-09-10T17:04:35.977Z,0.10
2022-09-10T17:07:02.812Z,0.17
2022-09-10T17:09:29.533Z,0.10
2022-09-10T17:12:00.144Z,0.30
2022-09-10T17:14:26.838Z,0.25
2022-09-10T17:16:53.700Z,0.35
2022-09-10T17:19:26.288Z,0.10
2022-09-10T17:21:56.962Z,0.10
2022-09-10T17:24:25.925Z,0.38
2022-09-10T17:26:53.174Z,0.17
2022-09-10T17:29:22.344Z,0.20
2022-09-10T17:31:55.086Z,0.20
2022-09-10T17:34:42.916Z,0.10
2022-09-10T17:37:12.959Z,0.15
2022-09-10T17:39:41.942Z,0.10
2022-09-10T17:42:11.100Z,0.25
2022-09-10T17:44:37.777Z,0.10
2022-09-10T17:47:04.765Z,0.10
2022-09-10T17:49:31.823Z,0.13
2022-09-10T17:52:00.205Z,0.20
2022-09-10T17:54:30.443Z,0.10
2022-09-10T17:57:01.095Z,0.10
2022-09-10T17:59:31.254Z,0.20
2022-09-10T18:01:58.052Z,0.20
2022-09-10T18:04:28.070Z,0.20
2022-09-10T18:06:55.204Z,0.30
2022-09-10T18:09:29.953Z,0.10
2022-09-10T18:12:02.315Z,0.40
2022-09-10T18:14:42.178Z,0.20
2022-09-10T18:17:08.967Z,0.10
2022-09-10T18:19:43.344Z,0.20
2022-09-10T18:22:10.262Z,0.20
2022-09-10T18:24:40.010Z,0.10
2022-09-10T18:27:07.104Z,0.10
2022-09-10T18:29:33.788Z,0.20
2022-09-10T18:32:03.237Z,0.13
2022-09-10T18:34:34.200Z,0.10
2022-09-10T18:37:03.048Z,0.20
2022-09-10T18:39:31.766Z,0.20
2022-09-10T18:42:02.774Z,0.10
2022-09-10T18:44:36.961Z,0.10
2022-09-10T18:47:17.750Z,0.15
2022-09-10T18:49:50.554Z,0.30
2022-09-10T18:52:19.507Z,0.20
2022-09-10T18:54:49.001Z,0.20
2022-09-10T18:57:17.905Z,0.20
2022-09-10T18:59:47.663Z,0.20
2022-09-10T19:02:15.688Z,0.50
2022-09-10T19:05:07.326Z,0.20
2022-09-10T19:07:29.534Z,0.20
2022-09-10T19:09:56.305Z,0.17
2022-09-10T19:12:23.234Z,0.22
2022-09-10T19:14:52.015Z,0.20
2022-09-10T19:17:18.968Z,0.30
2022-09-10T19:19:47.552Z,0.20
2022-09-10T19:22:16.605Z,0.30
2022-09-10T19:27:24.568Z,0.25
2022-09-10T19:29:52.023Z,0.20
2022-09-10T19:32:19.906Z,0.30
2022-09-10T19:34:52.190Z,0.22
2022-09-10T19:37:19.839Z,0.22
2022-09-10T19:39:49.208Z,0.57
2022-09-10T19:42:16.419Z,0.20
2022-09-10T19:44:48.144Z,0.20
2022-09-10T19:47:17.043Z,0.20
2022-09-10T19:49:43.736Z,0.20
2022-09-10T19:52:11.313Z,0.30
2022-09-10T19:54:40.774Z,0.20
2022-09-10T19:57:07.456Z,0.20
2022-09-10T19:59:34.183Z,0.30
2022-09-10T20:02:01.025Z,0.40
2022-09-10T20:04:28.216Z,0.30
2022-09-10T20:06:57.559Z,0.20
2022-09-10T20:09:29.386Z,0.30
2022-09-10T20:11:58.683Z,0.55
2022-09-10T20:14:25.456Z,0.20
2022-09-10T20:16:52.252Z,0.22
2022-09-10T20:19:20.306Z,0.40
2022-09-10T20:21:47.653Z,0.22
2022-09-10T20:24:17.225Z,0.30
2022-09-10T20:26:46.614Z,0.30
2022-09-10T20:29:15.401Z,0.20
2022-09-10T20:31:43.569Z,0.20
2022-09-10T20:34:19.566Z,0.30
2022-09-10T20:36:51.359Z,0.40
2022-09-10T20:39:22.422Z,0.30
2022-09-10T20:41:53.969Z,0.20
2022-09-10T20:44:23.136Z,0.20
2022-09-10T20:46:50.200Z,0.30
2022-09-10T20:49:19.410Z,0.20
2022-09-10T20:51:46.167Z,0.20
2022-09-10T20:54:17.432Z,0.30
2022-09-10T20:56:44.737Z,0.20
2022-09-10T20:59:19.300Z,0.20
2022-09-10T21:01:47.110Z,0.30
2022-09-10T21:04:14.274Z,0.30
2022-09-10T21:06:43.318Z,0.30
2022-09-10T21:09:12.559Z,0.17
2022-09-10T21:14:07.543Z,0.30
2022-09-10T21:16:39.480Z,0.20
2022-09-10T21:19:11.795Z,4.28
2022-09-10T21:21:39.826Z,0.32
2022-09-10T21:24:16.869Z,0.20
2022-09-10T21:27:03.245Z,0.57
2022-09-10T21:29:32.544Z,0.20
2022-09-10T21:32:02.394Z,0.40
2022-09-10T21:34:32.521Z,0.40
2022-09-10T21:37:04.618Z,0.30
2022-09-10T21:39:31.729Z,0.45
2022-09-10T21:41:59.688Z,0.52
2022-09-10T21:44:26.347Z,0.30
2022-09-10T21:46:53.446Z,0.20
2022-09-10T21:49:20.526Z,0.20
2022-09-10T21:51:49.595Z,0.40
2022-09-10T21:54:23.630Z,0.40
2022-09-10T21:56:53.096Z,0.30
2022-09-10T21:59:20.580Z,0.30
2022-09-10T22:01:48.181Z,0.20
2022-09-10T22:04:22.226Z,0.30
2022-09-10T22:06:49.501Z,0.20
2022-09-10T22:09:16.422Z,0.30
2022-09-10T22:11:50.100Z,0.28
2022-09-10T22:14:21.393Z,0.20
2022-09-10T22:16:52.609Z,0.32
2022-09-10T22:19:24.890Z,0.35
2022-09-10T22:21:56.059Z,0.20
2022-09-10T22:24:26.046Z,0.30
2022-09-10T22:26:52.805Z,0.10
2022-09-10T22:29:20.459Z,0.13
2022-09-10T22:31:47.598Z,0.20
2022-09-10T22:34:16.084Z,0.20
2022-09-10T22:36:57.575Z,0.20
2022-09-10T22:39:32.049Z,0.30
2022-09-10T22:42:01.290Z,0.20
2022-09-10T22:44:28.035Z,0.15
2022-09-10T22:46:54.713Z,0.20
2022-09-10T22:49:23.684Z,0.25
2022-09-10T22:51:50.375Z,0.45
2022-09-10T22:54:17.353Z,0.20
2022-09-10T22:56:46.366Z,0.35
2022-09-10T22:59:18.887Z,0.20
2022-09-10T23:01:48.472Z,0.20
2022-09-10T23:04:23.372Z,7.38
2022-09-10T23:06:52.467Z,0.40
2022-09-10T23:09:19.234Z,0.30
2022-09-10T23:11:46.162Z,0.30
2022-09-10T23:14:19.310Z,0.20
2022-09-10T23:16:51.865Z,0.20
2022-09-10T23:19:24.203Z,0.20
2022-09-10T23:21:53.096Z,0.20
2022-09-10T23:24:27.887Z,0.20
2022-09-10T23:26:57.937Z,0.20
2022-09-10T23:29:29.445Z,0.20
2022-09-10T23:31:58.288Z,0.10
2022-09-10T23:34:24.985Z,0.10
2022-09-10T23:36:52.385Z,0.20
2022-09-10T23:39:21.376Z,0.25
2022-09-10T23:41:49.424Z,0.20
2022-09-10T23:44:17.409Z,0.20
2022-09-10T23:46:48.083Z,0.20
2022-09-10T23:49:15.116Z,0.20
2022-09-10T23:51:49.737Z,0.40
2022-09-10T23:54:17.288Z,0.20
2022-09-10T23:56:48.689Z,0.20
2022-09-10T23:59:15.454Z,0.10
